Time;durP1;ratioP1;P1;durP2;ratioP2;P2;SDS_P1;SDS_P2;PMS_P1;PMS_P2;Temp;Humidity;BMP_temperature;BMP_pressure;BME280_temperature;BME280_humidity;BME280_pressure;Samples;Min_cycle;Max_cycle;Signal;HPM_P1;HPM_P2
2022/11/02 00:02:12;;;;;;;2.97;2.00;;;;;;;9.37;100.00;100859.94;5064920;28;20193;-74
2022/11/02 00:04:37;;;;;;;2.67;2.20;;;;;;;9.35;100.00;100864.22;5059759;28;20190;-77
2022/11/02 00:07:02;;;;;;;4.53;2.20;;;;;;;9.34;100.00;100849.56;5067994;28;20182;-74
2022/11/02 00:09:28;;;;;;;3.23;2.10;;;;;;;9.34;100.00;100847.00;5064926;28;20246;-73
2022/11/02 00:11:53;;;;;;;2.03;1.70;;;;;;;9.33;100.00;100851.28;5057440;28;20202;-76
2022/11/02 00:14:18;;;;;;;3.17;2.10;;;;;;;9.33;100.00;100845.25;5059431;28;20192;-74
2022/11/02 00:16:44;;;;;;;2.80;1.60;;;;;;;9.30;100.00;100846.97;5062580;28;20241;-75
2022/11/02 00:19:09;;;;;;;4.33;2.00;;;;;;;9.29;100.00;100839.22;5062939;28;20213;-74
2022/11/02 00:21:36;;;;;;;3.50;2.20;;;;;;;9.27;100.00;100849.53;5057026;28;20182;-74
2022/11/02 00:24:03;;;;;;;3.97;2.00;;;;;;;9.27;100.00;100851.25;5062172;28;20586;-75
2022/11/02 00:26:31;;;;;;;4.37;2.00;;;;;;;9.24;100.00;100844.34;5060597;28;20187;-73
2022/11/02 00:28:57;;;;;;;3.17;1.97;;;;;;;9.23;100.00;100849.50;5070732;28;20217;-73
2022/11/02 00:31:22;;;;;;;4.67;2.20;;;;;;;9.23;100.00;100850.34;5069488;28;20197;-74
2022/11/02 00:33:47;;;;;;;3.53;1.83;;;;;;;9.22;100.00;100840.91;5075556;28;20566;-75
2022/11/02 00:36:13;;;;;;;3.07;1.57;;;;;;;9.21;100.00;100849.50;5059894;28;20190;-76
2022/11/02 00:38:38;;;;;;;2.00;1.53;;;;;;;9.22;100.00;100850.34;5069734;28;20227;-76
2022/11/02 00:41:04;;;;;;;3.20;2.10;;;;;;;9.23;100.00;100847.78;5065417;28;20209;-75
2022/11/02 00:43:29;;;;;;;3.40;2.10;;;;;;;9.21;100.00;100851.22;5067151;28;20273;-72
2022/11/02 00:45:55;;;;;;;2.90;1.73;;;;;;;9.22;100.00;100852.94;5065609;28;20217;-76
2022/11/02 00:48:21;;;;;;;5.57;1.90;;;;;;;9.19;100.00;100856.38;5062119;28;20179;-73
2022/11/02 00:50:46;;;;;;;3.70;2.30;;;;;;;9.19;100.00;100853.81;5055765;28;20194;-76
2022/11/02 00:53:11;;;;;;;2.63;1.93;;;;;;;9.19;100.00;100850.34;5065140;28;20290;-73
2022/11/02 00:55:37;;;;;;;3.83;2.17;;;;;;;9.18;100.00;100856.34;5061063;28;20206;-74
2022/11/02 00:58:02;;;;;;;4.13;1.70;;;;;;;9.18;100.00;100848.59;5061497;28;20245;-74
2022/11/02 01:00:28;;;;;;;3.27;1.67;;;;;;;9.17;100.00;100858.09;5061296;28;20225;-74
2022/11/02 01:02:53;;;;;;;5.33;2.10;;;;;;;9.19;100.00;100855.50;5075838;28;20202;-76
2022/11/02 01:05:18;;;;;;;4.07;2.20;;;;;;;9.20;100.00;100852.06;5060864;28;20189;-74
2022/11/02 01:07:44;;;;;;;4.23;1.97;;;;;;;9.23;100.00;100852.09;5074877;28;20191;-77
2022/11/02 01:10:10;;;;;;;2.90;1.70;;;;;;;9.25;100.00;100855.53;5061680;28;20213;-76
2022/11/02 01:12:37;;;;;;;4.47;1.53;;;;;;;9.25;100.00;100845.22;5061335;28;20182;-77
2022/11/02 01:15:05;;;;;;;4.40;2.10;;;;;;;9.28;100.00;100843.50;5059979;28;20605;-75
2022/11/02 01:17:31;;;;;;;3.07;1.77;;;;;;;9.32;100.00;100851.28;5061059;28;20250;-74
2022/11/02 01:19:56;;;;;;;3.77;1.60;;;;;;;9.33;100.00;100848.69;5060073;28;20705;-77
2022/11/02 01:22:22;;;;;;;3.43;1.63;;;;;;;9.37;100.00;100847.00;5063956;28;20248;-77
2022/11/02 01:24:47;;;;;;;3.23;1.57;;;;;;;9.39;100.00;100840.09;5061793;28;20711;-76
2022/11/02 01:27:12;;;;;;;3.33;1.60;;;;;;;9.41;100.00;100836.69;5062957;28;20449;-76
2022/11/02 01:29:38;;;;;;;5.23;1.53;;;;;;;9.44;100.00;100834.13;5056511;28;20731;-75
2022/11/02 01:32:03;;;;;;;5.17;1.90;;;;;;;9.50;100.00;100827.25;5062355;28;20660;-76
2022/11/02 01:34:28;;;;;;;4.77;1.90;;;;;;;9.57;100.00;100824.69;5060964;28;20563;-76
2022/11/02 01:36:54;;;;;;;4.70;2.27;;;;;;;9.65;100.00;100826.47;5059756;28;20230;-75
2022/11/02 01:39:19;;;;;;;3.73;1.60;;;;;;;9.70;100.00;100825.59;5056137;28;20288;-74
2022/11/02 01:41:49;;;;;;;2.67;1.53;;;;;;;9.77;100.00;100817.00;5059592;28;20668;-73
2022/11/02 01:44:32;;;;;;;3.67;1.50;;;;;;;9.84;100.00;100820.47;5053905;28;20182;-75
2022/11/02 01:47:01;;;;;;;2.90;1.40;;;;;;;9.87;100.00;100820.47;5059319;28;20269;-77
2022/11/02 01:49:27;;;;;;;2.87;1.30;;;;;;;9.91;100.00;100816.16;5066903;28;20213;-74
2022/11/02 01:52:06;;;;;;;3.73;1.50;;;;;;;9.94;100.00;100808.44;5056935;28;20273;-76
2022/11/02 01:54:38;;;;;;;2.10;1.27;;;;;;;9.97;100.00;100813.59;5058793;28;20183;-75
2022/11/02 01:57:05;;;;;;;1.30;0.97;;;;;;;9.99;100.00;100811.00;5063826;28;20206;-76
2022/11/02 01:59:50;;;;;;;3.47;1.57;;;;;;;10.02;100.00;100811.91;5070192;28;20290;-74
2022/11/02 02:02:19;;;;;;;3.10;1.40;;;;;;;10.04;100.00;100807.59;5054758;28;20181;-77
2022/11/02 02:04:49;;;;;;;2.30;1.40;;;;;;;10.06;100.00;100803.28;5063791;28;20190;-75
2022/11/02 02:07:15;;;;;;;3.70;1.53;;;;;;;10.09;100.00;100809.31;5074271;28;20205;-74
2022/11/02 02:09:40;;;;;;;2.03;1.20;;;;;;;10.10;100.00;100800.69;5061286;28;20211;-77
2022/11/02 02:12:06;;;;;;;4.43;1.57;;;;;;;10.13;100.00;100800.69;5060866;28;20194;-76
2022/11/02 02:14:32;;;;;;;3.07;1.60;;;;;;;10.15;100.00;100805.00;5061865;28;20592;-75
2022/11/02 02:17:23;;;;;;;3.37;1.80;;;;;;;10.18;100.00;100804.16;5059662;28;20965;-77
2022/11/02 02:20:03;;;;;;;2.40;1.53;;;;;;;10.21;100.00;100801.56;5061218;28;20210;-75
2022/11/02 02:22:47;;;;;;;2.33;1.20;;;;;;;10.24;100.00;100796.41;5056183;28;20187;-76
2022/11/02 02:25:42;;;;;;;5.53;1.57;;;;;;;10.27;100.00;100804.16;5058289;28;20607;-76
2022/11/02 02:28:36;;;;;;;3.53;1.60;;;;;;;10.30;100.00;100803.28;5060884;28;20749;-74
2022/11/02 02:31:15;;;;;;;3.73;1.50;;;;;;;10.32;100.00;100798.97;5055684;28;20619;-74
2022/11/02 02:33:49;;;;;;;3.50;1.80;;;;;;;10.34;100.00;100794.69;5054564;28;20183;-76
2022/11/02 02:36:30;;;;;;;5.37;1.80;;;;;;;10.37;100.00;100789.50;5058324;28;20191;-76
2022/11/02 02:39:04;;;;;;;4.37;1.90;;;;;;;10.40;100.00;100788.66;5057720;28;20210;-75
2022/11/02 02:41:40;;;;;;;4.70;1.70;;;;;;;10.46;100.00;100778.31;5060865;28;20255;-75
2022/11/02 02:44:10;;;;;;;3.93;1.63;;;;;;;10.48;100.00;100794.72;5060596;28;20185;-76
2022/11/02 02:47:05;;;;;;;4.50;1.77;;;;;;;10.49;100.00;100789.53;5057729;28;20194;-76
2022/11/02 02:49:42;;;;;;;2.13;1.27;;;;;;;10.51;100.00;100797.31;5050671;28;20248;-76
2022/11/02 02:52:09;;;;;;;2.63;1.80;;;;;;;10.50;100.00;100788.66;5061983;28;20280;-76
2022/11/02 02:54:39;;;;;;;2.47;1.47;;;;;;;10.51;100.00;100792.13;5056138;28;20190;-74
2022/11/02 02:57:11;;;;;;;3.80;1.73;;;;;;;10.52;100.00;100802.47;5058239;28;20705;-77
2022/11/02 02:59:45;;;;;;;5.07;1.93;;;;;;;10.52;100.00;100792.13;5054684;28;20612;-75
2022/11/02 03:02:18;;;;;;;6.43;2.00;;;;;;;10.53;100.00;100787.78;5063842;28;20217;-75
2022/11/02 03:04:43;;;;;;;4.33;1.60;;;;;;;10.54;100.00;100781.75;5059503;28;20680;-74
2022/11/02 03:07:12;;;;;;;3.97;1.80;;;;;;;10.54;100.00;100788.69;5058658;28;20272;-76
2022/11/02 03:10:04;;;;;;;3.37;1.70;;;;;;;10.52;100.00;100784.38;5056155;28;20209;-77
2022/11/02 03:12:54;;;;;;;4.13;2.00;;;;;;;10.51;100.00;100789.56;5058949;28;20992;-74
2022/11/02 03:15:39;;;;;;;4.87;1.87;;;;;;;10.51;100.00;100790.41;5064089;28;20522;-76
2022/11/02 03:18:42;;;;;;;4.20;1.80;;;;;;;10.49;100.00;100797.28;5055501;28;20356;-76
2022/11/02 03:21:30;;;;;;;4.13;1.90;;;;;;;10.49;100.00;100797.28;5057596;28;20198;-76
2022/11/02 03:24:00;;;;;;;5.67;2.10;;;;;;;10.49;100.00;100797.28;5063393;28;20188;-77
2022/11/02 03:26:47;;;;;;;4.97;2.30;;;;;;;10.47;100.00;100803.34;5058648;28;20179;-76
2022/11/02 03:29:20;;;;;;;5.77;2.30;;;;;;;10.44;100.00;100798.16;5066272;28;20803;-76
2022/11/02 03:31:54;;;;;;;3.90;1.77;;;;;;;10.42;100.00;100807.66;5071397;28;20584;-77
2022/11/02 03:34:44;;;;;;;6.93;2.20;;;;;;;10.40;100.00;100805.06;5062666;28;20296;-76
2022/11/02 03:37:21;;;;;;;4.60;1.57;;;;;;;10.36;100.00;100817.09;5061046;28;20238;-77
2022/11/02 03:39:51;;;;;;;3.10;1.60;;;;;;;10.33;100.00;100821.41;5057198;28;20210;-76
2022/11/02 03:42:21;;;;;;;4.10;1.60;;;;;;;10.29;100.00;100814.50;5063247;28;20193;-77
2022/11/02 03:44:52;;;;;;;3.63;1.50;;;;;;;10.25;100.00;100820.56;5065116;28;20245;-76
2022/11/02 03:47:19;;;;;;;4.47;2.00;;;;;;;10.22;100.00;100826.56;5060066;28;20273;-76
2022/11/02 03:49:47;;;;;;;4.07;1.77;;;;;;;10.17;100.00;100829.16;5059029;28;20727;-76
2022/11/02 03:52:20;;;;;;;4.00;1.40;;;;;;;10.18;100.00;100825.72;5069115;28;20185;-76
2022/11/02 03:54:52;;;;;;;4.03;2.03;;;;;;;10.19;100.00;100835.19;5057603;28;20182;-77
2022/11/02 03:57:24;;;;;;;4.13;1.97;;;;;;;10.17;100.00;100825.72;5063940;28;20205;-76
2022/11/02 03:59:49;;;;;;;3.93;1.70;;;;;;;10.15;100.00;100824.84;5065500;28;20208;-74
2022/11/02 04:02:17;;;;;;;2.67;1.63;;;;;;;10.12;100.00;100827.44;5068209;28;20191;-75
2022/11/02 04:04:50;;;;;;;3.83;1.80;;;;;;;10.12;100.00;100830.00;5056808;28;20194;-75
2022/11/02 04:07:24;;;;;;;5.63;2.17;;;;;;;10.12;100.00;100825.72;5060074;28;20189;-77
2022/11/02 04:09:49;;;;;;;7.13;2.13;;;;;;;10.11;100.00;100824.00;5056243;28;20206;-75
2022/11/02 04:15:00;;;;;;;5.97;2.00;;;;;;;10.10;100.00;100829.13;5059121;28;20312;-76
2022/11/02 04:20:10;;;;;;;3.67;1.87;;;;;;;10.10;100.00;100834.31;5058501;28;20261;-75
2022/11/02 04:25:19;;;;;;;3.63;2.00;;;;;;;10.15;100.00;100838.63;5055993;28;20245;-73
2022/11/02 04:27:50;;;;;;;4.77;2.53;;;;;;;10.15;100.00;100845.53;5059696;28;20175;-76
2022/11/02 04:30:18;;;;;;;5.63;2.87;;;;;;;10.16;100.00;100860.19;5059021;28;20206;-76
2022/11/02 04:35:31;;;;;;;6.37;5.10;;;;;;;10.25;100.00;100867.13;5060151;28;20402;-76
2022/11/02 04:40:41;;;;;;;7.07;2.90;;;;;;;10.43;100.00;100882.72;5057048;28;20213;-75
2022/11/02 04:43:07;;;;;;;5.07;2.87;;;;;;;10.51;100.00;100888.75;5056004;28;20189;-77
2022/11/02 04:45:32;;;;;;;7.30;4.80;;;;;;;10.62;100.00;100887.88;5055267;28;20186;-75
2022/11/02 04:48:02;;;;;;;4.87;3.10;;;;;;;10.71;100.00;100902.53;5057961;28;20194;-74
2022/11/02 04:50:28;;;;;;;4.33;3.23;;;;;;;10.79;100.00;100906.03;5055895;28;20212;-76
2022/11/02 04:52:57;;;;;;;5.00;3.27;;;;;;;10.87;100.00;100903.44;5056907;28;20199;-77
2022/11/02 04:55:23;;;;;;;3.90;3.50;;;;;;;10.96;100.00;100911.19;5058316;28;20201;-74
2022/11/02 04:57:49;;;;;;;3.97;2.60;;;;;;;11.04;100.00;100911.19;5056607;28;21980;-76
2022/11/02 05:00:15;;;;;;;2.37;1.93;;;;;;;11.11;100.00;100918.09;5058837;28;20209;-73
2022/11/02 05:02:40;;;;;;;3.00;1.80;;;;;;;11.17;100.00;100919.81;5057237;28;20194;-77
2022/11/02 05:05:06;;;;;;;4.70;2.30;;;;;;;11.25;100.00;100920.66;5060196;28;20622;-75
2022/11/02 05:07:31;;;;;;;5.17;2.20;;;;;;;11.32;100.00;100924.09;5056995;28;20195;-76
2022/11/02 05:09:56;;;;;;;3.20;1.90;;;;;;;11.37;100.00;100920.63;5057414;28;20228;-76
2022/11/02 05:12:22;;;;;;;3.10;1.70;;;;;;;11.43;100.00;100917.16;5062032;28;20209;-75
2022/11/02 05:14:47;;;;;;;3.40;1.53;;;;;;;11.46;100.00;100914.56;5055731;28;20189;-73
2022/11/02 05:17:13;;;;;;;4.70;1.80;;;;;;;11.48;100.00;100912.81;5057058;28;20202;-75
2022/11/02 05:19:38;;;;;;;3.27;1.60;;;;;;;11.52;100.00;100908.50;5056448;28;20202;-76
2022/11/02 05:22:04;;;;;;;2.43;1.40;;;;;;;11.53;100.00;100926.66;5054377;28;20195;-74
2022/11/02 05:24:29;;;;;;;2.67;1.50;;;;;;;11.54;100.00;100927.50;5058247;28;20221;-72
2022/11/02 05:26:55;;;;;;;3.77;1.70;;;;;;;11.54;100.00;100923.19;5055138;28;20752;-75
2022/11/02 05:29:20;;;;;;;2.53;1.53;;;;;;;11.56;100.00;100936.13;5060467;28;20214;-72
2022/11/02 05:31:45;;;;;;;2.47;1.40;;;;;;;11.55;100.00;100943.06;5066548;28;20190;-74
2022/11/02 05:34:11;;;;;;;2.73;1.70;;;;;;;11.56;100.00;100947.38;5068677;28;20184;-76
2022/11/02 05:36:36;;;;;;;3.50;1.83;;;;;;;11.58;100.00;100945.63;5059540;28;20199;-77
2022/11/02 05:39:02;;;;;;;4.27;2.43;;;;;;;11.60;100.00;100950.81;5060920;28;20272;-77
2022/11/02 05:41:27;;;;;;;5.30;2.60;;;;;;;11.62;100.00;100956.00;5060923;28;20278;-75
2022/11/02 05:43:52;;;;;;;4.57;3.30;;;;;;;11.63;100.00;100962.91;5062195;28;20285;-77
2022/11/02 05:46:18;;;;;;;7.83;4.17;;;;;;;11.67;100.00;100954.25;5059331;28;20180;-75
2022/11/02 05:48:43;;;;;;;5.80;3.20;;;;;;;11.66;100.00;100961.16;5058211;28;20302;-76
2022/11/02 05:51:09;;;;;;;6.57;3.97;;;;;;;11.65;100.00;100961.19;5061170;28;20301;-74
2022/11/02 05:53:37;;;;;;;6.87;4.13;;;;;;;11.62;100.00;100943.91;5062066;28;20204;-73
2022/11/02 05:56:04;;;;;;;9.07;6.97;;;;;;;11.62;100.00;100946.50;5060604;28;20198;-76
2022/11/02 05:58:31;;;;;;;6.53;4.50;;;;;;;11.58;100.00;100953.41;5064805;28;20206;-75
2022/11/02 06:01:04;;;;;;;5.03;3.40;;;;;;;11.54;100.00;100969.84;5061159;28;20248;-76
2022/11/02 06:03:31;;;;;;;9.53;7.33;;;;;;;11.48;100.00;100964.66;5060203;28;20845;-76
2022/11/02 06:06:06;;;;;;;7.73;7.03;;;;;;;11.43;100.00;100968.97;5062841;28;20183;-76
2022/11/02 06:08:35;;;;;;;7.43;5.60;;;;;;;11.40;100.00;100974.19;5064624;28;20193;-73
2022/11/02 06:11:04;;;;;;;7.63;6.10;;;;;;;11.39;100.00;100977.66;5058264;28;20280;-74
2022/11/02 06:13:30;;;;;;;6.13;4.67;;;;;;;11.37;100.00;100982.81;5070056;28;20276;-76
2022/11/02 06:16:01;;;;;;;7.40;4.20;;;;;;;11.39;100.00;100998.38;5060179;28;20292;-76
2022/11/02 06:18:27;;;;;;;7.17;3.70;;;;;;;11.39;100.00;100995.78;5063732;28;20656;-76
2022/11/02 06:20:52;;;;;;;6.93;3.53;;;;;;;11.41;100.00;100997.50;5061172;28;20194;-75
2022/11/02 06:23:17;;;;;;;5.63;4.70;;;;;;;11.40;100.00;101002.69;5068505;28;20224;-75
2022/11/02 06:25:53;;;;;;;5.67;3.73;;;;;;;11.40;100.00;101007.88;5059337;28;20212;-75
2022/11/02 06:28:21;;;;;;;3.87;2.73;;;;;;;11.38;100.00;101004.44;5058064;28;20210;-73
2022/11/02 06:30:48;;;;;;;5.13;3.00;;;;;;;11.38;100.00;101007.88;5068744;28;20540;-73
2022/11/02 06:33:13;;;;;;;6.27;2.97;;;;;;;11.37;100.00;101013.91;5057557;28;20666;-75
2022/11/02 06:35:38;;;;;;;5.93;3.13;;;;;;;11.34;100.00;101013.94;5065039;28;20229;-74
2022/11/02 06:38:03;;;;;;;6.90;2.90;;;;;;;11.31;100.00;101016.53;5064552;28;20700;-75
2022/11/02 06:40:29;;;;;;;8.20;3.50;;;;;;;11.25;100.00;101022.56;5059688;28;20222;-73
2022/11/02 06:42:56;;;;;;;9.43;5.10;;;;;;;11.21;100.00;101031.22;5055892;28;20304;-73
2022/11/02 06:45:21;;;;;;;6.97;5.80;;;;;;;11.18;100.00;101033.78;5058603;28;20188;-75
2022/11/02 06:47:47;;;;;;;8.37;5.17;;;;;;;11.14;100.00;101039.81;5061417;28;20845;-76
2022/11/02 06:50:13;;;;;;;5.00;3.60;;;;;;;11.11;100.00;101040.69;5060873;28;20813;-76
2022/11/02 06:52:45;;;;;;;5.07;2.80;;;;;;;11.13;100.00;101040.69;5054917;28;20876;-74
2022/11/02 06:55:12;;;;;;;4.50;2.73;;;;;;;11.13;100.00;101048.44;5066093;28;20199;-74
2022/11/02 06:57:38;;;;;;;3.33;2.27;;;;;;;11.12;100.00;101050.19;5059003;28;20206;-77
2022/11/02 07:00:05;;;;;;;3.73;2.37;;;;;;;11.13;100.00;101048.44;5068211;28;20206;-74
2022/11/02 07:02:31;;;;;;;4.27;2.57;;;;;;;11.15;100.00;101051.06;5076900;28;20185;-72
2022/11/02 07:04:56;;;;;;;7.20;2.90;;;;;;;11.17;100.00;101054.53;5096325;28;20174;-73
2022/11/02 07:07:21;;;;;;;4.70;2.37;;;;;;;11.20;100.00;101065.75;5099760;28;20209;-74
2022/11/02 07:09:47;;;;;;;6.47;2.40;;;;;;;11.26;100.00;101059.69;5088711;28;20207;-74
2022/11/02 07:12:12;;;;;;;4.67;2.17;;;;;;;11.31;100.00;101057.09;5079838;28;20166;-73
2022/11/02 07:14:38;;;;;;;3.73;1.90;;;;;;;11.36;100.00;101064.00;5083444;28;20245;-73
2022/11/02 07:17:03;;;;;;;4.33;2.53;;;;;;;11.46;100.00;101069.22;5081086;28;20199;-74
2022/11/02 07:19:29;;;;;;;5.17;2.40;;;;;;;11.55;100.00;101070.09;5086324;28;20234;-73
2022/11/02 07:21:54;;;;;;;5.93;2.50;;;;;;;11.62;100.00;101073.53;5083456;28;20183;-74
2022/11/02 07:24:20;;;;;;;4.43;2.53;;;;;;;11.69;100.00;101072.66;5080849;28;20190;-76
2022/11/02 07:26:51;;;;;;;4.60;2.30;;;;;;;11.77;100.00;101071.78;5062641;28;20214;-75
2022/11/02 07:29:17;;;;;;;4.00;2.50;;;;;;;11.82;100.00;101076.09;5064587;28;20798;-77
2022/11/02 07:31:43;;;;;;;4.77;2.10;;;;;;;11.84;100.00;101078.69;5063077;28;20196;-77
2022/11/02 07:34:09;;;;;;;3.17;1.83;;;;;;;11.87;100.00;101081.28;5058601;28;20191;-76
2022/11/02 07:36:34;;;;;;;3.87;2.00;;;;;;;11.88;100.00;101089.03;5063750;28;20189;-76
2022/11/02 07:39:00;;;;;;;4.73;2.10;;;;;;;11.89;100.00;101090.78;5054569;28;20694;-76
2022/11/02 07:41:25;;;;;;;6.60;2.50;;;;;;;11.90;100.00;101100.28;5059212;28;20264;-76
2022/11/02 07:43:50;;;;;;;5.00;2.27;;;;;;;11.88;100.00;101091.63;5063479;28;20189;-75
2022/11/02 07:46:16;;;;;;;2.87;2.10;;;;;;;11.87;100.00;101102.88;5062574;28;20262;-76
2022/11/02 07:48:41;;;;;;;4.23;2.30;;;;;;;11.88;100.00;101103.75;5058290;28;20195;-75
2022/11/02 07:51:07;;;;;;;3.97;2.40;;;;;;;11.93;100.00;101106.34;5065743;28;20576;-76
2022/11/02 07:53:33;;;;;;;4.40;2.17;;;;;;;11.97;100.00;101110.66;5063062;28;21107;-76
2022/11/02 07:56:02;;;;;;;5.37;2.20;;;;;;;12.04;100.00;101107.22;5060772;28;20197;-76
2022/11/02 07:58:27;;;;;;;3.03;2.20;;;;;;;12.11;100.00;101108.06;5056301;28;20211;-77
2022/11/02 08:00:53;;;;;;;3.63;2.10;;;;;;;12.17;100.00;101113.25;5063434;28;20218;-74
2022/11/02 08:03:19;;;;;;;4.43;1.90;;;;;;;12.21;100.00;101109.78;5060322;28;21007;-75
2022/11/02 08:05:44;;;;;;;1.83;1.40;;;;;;;12.27;100.00;101114.94;5055323;28;20277;-74
2022/11/02 08:08:16;;;;;;;4.17;1.80;;;;;;;12.32;100.00;101114.97;5068431;28;20182;-76
2022/11/02 08:10:43;;;;;;;3.83;1.93;;;;;;;12.36;100.00;101121.84;5066353;28;20259;-76
2022/11/02 08:13:11;;;;;;;3.43;1.90;;;;;;;12.41;100.00;101125.28;5065003;28;20587;-76
2022/11/02 08:15:36;;;;;;;4.03;1.80;;;;;;;12.44;100.00;101127.88;5064142;28;20181;-77
2022/11/02 08:18:22;;;;;;;4.27;1.80;;;;;;;12.51;100.00;101120.94;5064843;28;20191;-77
2022/11/02 08:20:48;;;;;;;3.60;1.90;;;;;;;12.57;100.00;101128.69;5056659;28;20213;-74
2022/11/02 08:23:15;;;;;;;3.70;1.90;;;;;;;12.66;100.00;101125.19;5064050;28;20191;-76
2022/11/02 08:25:41;;;;;;;4.07;1.87;;;;;;;12.71;100.00;101132.97;5058688;28;20193;-76
2022/11/02 08:28:11;;;;;;;3.93;1.60;;;;;;;12.79;100.00;101132.06;5060761;28;20189;-75
2022/11/02 08:30:37;;;;;;;8.27;2.13;;;;;;;12.88;100.00;101130.31;5057097;28;20192;-77
2022/11/02 08:33:10;;;;;;;2.77;1.67;;;;;;;12.95;100.00;101131.97;5062868;28;20210;-75
2022/11/02 08:35:36;;;;;;;2.87;1.40;;;;;;;13.04;100.00;101137.16;5055810;28;20204;-76
2022/11/02 08:38:03;;;;;;;3.57;1.80;;;;;;;13.17;100.00;101130.13;5064197;28;20705;-73
2022/11/02 08:40:29;;;;;;;2.50;1.83;;;;;;;13.32;100.00;101126.56;5061879;28;20270;-75
2022/11/02 08:42:58;;;;;;;4.20;2.00;;;;;;;13.47;100.00;101130.81;5063735;28;20728;-73
2022/11/02 08:45:24;;;;;;;2.70;2.00;;;;;;;13.62;100.00;101135.06;5063137;28;20200;-76
2022/11/02 08:47:50;;;;;;;3.80;2.00;;;;;;;13.74;100.00;101126.28;5058024;28;20175;-77
2022/11/02 08:50:15;;;;;;;3.30;1.90;;;;;;;13.84;100.00;101135.75;5061875;28;20565;-77
2022/11/02 08:52:40;;;;;;;2.23;1.43;;;;;;;13.95;100.00;101140.84;5060804;28;20203;-73
2022/11/02 08:55:06;;;;;;;3.43;2.00;;;;;;;14.06;100.00;101137.28;5062160;28;20182;-77
2022/11/02 08:57:31;;;;;;;2.90;1.87;;;;;;;14.13;100.00;101136.34;5062052;28;20193;-77
2022/11/02 08:59:57;;;;;;;3.73;1.90;;;;;;;14.23;100.00;101143.19;5054221;28;20206;-76
2022/11/02 09:02:22;;;;;;;2.87;1.80;;;;;;;14.30;100.00;101144.81;5058182;28;20194;-77
2022/11/02 09:04:48;;;;;;;3.23;1.70;;;;;;;14.35;100.00;101141.31;5062421;28;20209;-75
2022/11/02 09:07:13;;;;;;;3.13;1.90;;;;;;;14.35;100.00;101136.09;5059106;28;20288;-76
2022/11/02 09:09:39;;;;;;;3.30;1.60;;;;;;;14.33;100.00;101143.94;5063195;28;20215;-75
2022/11/02 09:12:04;;;;;;;3.63;1.50;;;;;;;14.30;100.00;101136.16;5062113;28;20227;-76
2022/11/02 09:14:30;;;;;;;2.30;1.53;;;;;;;14.24;100.00;101138.81;5059765;28;20192;-75
2022/11/02 09:16:55;;;;;;;5.67;1.90;;;;;;;14.19;100.00;101144.06;5054137;28;20224;-77
2022/11/02 09:19:20;;;;;;;3.20;1.37;;;;;;;14.13;100.00;101142.41;5064135;28;20235;-77
2022/11/02 09:21:48;;;;;;;2.63;1.37;;;;;;;14.09;100.00;101142.47;5064983;28;20308;-76
2022/11/02 09:24:14;;;;;;;4.40;1.70;;;;;;;14.06;100.00;101142.47;5064259;28;20724;-76
2022/11/02 09:26:39;;;;;;;3.13;1.63;;;;;;;14.03;100.00;101140.78;5063676;28;20281;-76
2022/11/02 09:29:04;;;;;;;3.90;1.60;;;;;;;14.02;100.00;101146.84;5058407;28;20254;-76
2022/11/02 09:31:30;;;;;;;3.93;1.73;;;;;;;14.05;100.00;101148.56;5065038;28;20216;-76
2022/11/02 09:33:55;;;;;;;3.53;1.20;;;;;;;14.12;100.00;101153.69;5057435;28;20194;-76
2022/11/02 09:36:20;;;;;;;2.60;1.47;;;;;;;14.20;100.00;101155.38;5060748;28;20244;-75
2022/11/02 09:38:46;;;;;;;3.03;1.30;;;;;;;14.30;100.00;101149.19;5054911;28;20240;-77
2022/11/02 09:41:39;;;;;;;4.23;1.53;;;;;;;14.43;100.00;101155.13;5070655;28;20170;-76
2022/11/02 09:44:17;;;;;;;2.83;1.60;;;;;;;14.59;100.00;101151.47;5049881;28;20785;-76
2022/11/02 09:46:45;;;;;;;4.60;2.03;;;;;;;14.69;100.00;101147.03;5057364;28;20182;-75
2022/11/02 09:49:13;;;;;;;6.10;2.27;;;;;;;14.82;100.00;101157.31;5060808;28;20213;-75
2022/11/02 09:51:46;;;;;;;4.23;1.90;;;;;;;14.94;100.00;101164.97;5057251;28;20289;-77
2022/11/02 09:54:24;;;;;;;2.87;1.40;;;;;;;14.98;100.00;101160.56;5060818;28;20177;-76
2022/11/02 09:56:51;;;;;;;3.40;1.80;;;;;;;15.00;100.00;101164.88;5055856;28;20255;-77
2022/11/02 09:59:23;;;;;;;2.03;1.30;;;;;;;15.11;100.00;101158.66;5062388;28;20198;-77
2022/11/02 10:02:06;;;;;;;3.83;1.50;;;;;;;15.33;100.00;101165.28;5061884;28;20211;-76
2022/11/02 10:04:37;;;;;;;3.33;1.77;;;;;;;15.57;100.00;101170.16;5059144;28;20182;-77
2022/11/02 10:07:27;;;;;;;2.67;1.60;;;;;;;15.61;100.00;101164.84;5060134;28;20185;-74
2022/11/02 10:09:58;;;;;;;5.90;1.90;;;;;;;15.45;100.00;101165.97;5057757;28;20216;-76
2022/11/02 10:12:52;;;;;;;3.70;1.80;;;;;;;15.30;100.00;101161.88;5058088;28;20190;-77
2022/11/02 10:15:29;;;;;;;2.73;1.70;;;;;;;15.18;100.00;101155.94;5060432;28;20225;-76
2022/11/02 10:17:57;;;;;;;4.13;1.73;;;;;;;15.16;100.00;101149.00;5066160;28;20199;-74
2022/11/02 10:20:28;;;;;;;5.03;2.33;;;;;;;15.29;100.00;101144.50;5060259;28;20210;-75
2022/11/02 10:22:59;;;;;;;3.30;1.70;;;;;;;15.34;100.00;101148.75;5058763;28;20195;-74
2022/11/02 10:25:25;;;;;;;4.13;1.70;;;;;;;15.33;100.00;101148.78;5063499;28;20187;-75
2022/11/02 10:28:02;;;;;;;4.57;1.83;;;;;;;15.32;99.88;101147.06;5062344;28;20182;-77
2022/11/02 10:30:28;;;;;;;4.83;1.90;;;;;;;15.38;99.53;101144.34;5062944;28;20205;-77
2022/11/02 10:32:55;;;;;;;5.43;2.03;;;;;;;15.53;99.23;101151.94;5055904;28;20620;-75
2022/11/02 10:35:44;;;;;;;5.17;1.70;;;;;;;15.65;98.90;101152.66;5068841;28;20187;-77
2022/11/02 10:38:41;;;;;;;3.37;1.53;;;;;;;15.81;98.33;101158.47;5062173;28;20285;-75
2022/11/02 10:41:32;;;;;;;4.57;1.70;;;;;;;15.93;98.00;101162.66;5070942;28;20202;-76
2022/11/02 10:44:10;;;;;;;4.80;2.00;;;;;;;16.03;97.29;101161.59;5047954;28;20201;-76
2022/11/02 10:47:02;;;;;;;3.53;1.67;;;;;;;16.09;97.43;101158.00;5066624;28;20550;-75
2022/11/02 10:49:46;;;;;;;4.53;1.83;;;;;;;16.13;96.74;101157.06;5063182;28;20204;-73
2022/11/02 10:52:14;;;;;;;3.37;1.57;;;;;;;16.11;96.54;101153.63;5067453;28;20235;-75
2022/11/02 10:54:40;;;;;;;2.40;1.40;;;;;;;16.13;96.86;101159.69;5055628;28;20192;-73
2022/11/02 10:57:13;;;;;;;5.33;1.83;;;;;;;16.13;96.10;101163.13;5065019;28;20282;-77
2022/11/02 10:59:38;;;;;;;3.00;1.50;;;;;;;16.11;96.10;101159.69;5061843;28;20229;-75
2022/11/02 11:02:12;;;;;;;5.10;1.80;;;;;;;16.26;95.65;101155.94;5067019;28;20605;-73
2022/11/02 11:04:38;;;;;;;5.87;1.97;;;;;;;16.39;95.06;101151.38;5061326;28;20539;-75
2022/11/02 11:07:10;;;;;;;2.67;1.60;;;;;;;16.62;93.37;101147.41;5061239;28;20193;-73
2022/11/02 11:09:45;;;;;;;6.23;2.27;;;;;;;16.95;91.35;101133.69;5064172;28;20204;-76
2022/11/02 11:12:21;;;;;;;3.83;1.87;;;;;;;17.24;89.81;101130.44;5067811;28;20639;-73
2022/11/02 11:14:57;;;;;;;4.47;1.70;;;;;;;17.46;89.08;101122.94;5061120;28;20268;-76
2022/11/02 11:17:33;;;;;;;5.93;1.97;;;;;;;17.62;87.89;101126.00;5065185;28;20211;-77
2022/11/02 11:20:00;;;;;;;3.43;1.73;;;;;;;17.73;87.74;101124.91;5061996;28;20220;-73
2022/11/02 11:22:32;;;;;;;3.30;1.60;;;;;;;17.85;87.54;101121.97;5060329;28;20724;-75
2022/11/02 11:25:26;;;;;;;5.47;1.97;;;;;;;17.96;87.13;101127.78;5065539;28;20255;-75
2022/11/02 11:27:58;;;;;;;4.60;1.80;;;;;;;18.08;85.73;101123.13;5062905;28;20191;-74
2022/11/02 11:30:31;;;;;;;4.27;1.90;;;;;;;18.04;85.79;101118.91;5063419;28;20777;-73
2022/11/02 11:32:58;;;;;;;4.83;2.10;;;;;;;17.87;85.88;101119.28;5058905;28;20186;-73
2022/11/02 11:35:29;;;;;;;3.43;1.50;;;;;;;17.64;86.40;101115.53;5066415;28;20200;-75
2022/11/02 11:37:58;;;;;;;4.67;1.60;;;;;;;17.28;87.07;101118.13;5063790;28;20238;-74
2022/11/02 11:40:24;;;;;;;3.10;1.50;;;;;;;16.92;87.84;101118.91;5060846;28;20345;-74
2022/11/02 11:42:53;;;;;;;5.97;1.50;;;;;;;16.60;88.90;101116.09;5060009;28;20213;-76
2022/11/02 11:45:25;;;;;;;4.40;1.63;;;;;;;16.35;89.38;101110.50;5064242;28;20196;-73